Time;durP1;ratioP1;P1;durP2;ratioP2;P2;SDS_P1;SDS_P2;PMS_P1;PMS_P2;Temp;Humidity;BMP_temperature;BMP_pressure;BME280_temperature;BME280_humidity;BME280_pressure;Samples;Min_cycle;Max_cycle;Signal;HPM_P1;HPM_P2
2023/05/25 00:02:24;;;;;;;8.40;5.00;;;;;;;;;;5031362;28;20419;-65
2023/05/25 00:04:51;;;;;;;6.93;4.90;;;;;;;;;;5031742;28;20100;-65
2023/05/25 00:07:17;;;;;;;17.13;5.38;;;;;;;;;;5030873;28;20521;-65
2023/05/25 00:09:45;;;;;;;8.95;4.97;;;;;;;;;;5031098;28;20052;-65
2023/05/25 00:12:11;;;;;;;9.23;4.97;;;;;;;;;;5031218;28;20486;-65
2023/05/25 00:14:38;;;;;;;9.05;4.60;;;;;;;;;;5031248;28;20051;-65
2023/05/25 00:17:08;;;;;;;11.65;5.60;;;;;;;;;;5031115;28;20513;-65
2023/05/25 00:19:35;;;;;;;12.30;5.03;;;;;;;;;;5030617;28;20057;-65
2023/05/25 00:22:02;;;;;;;11.43;4.68;;;;;;;;;;5031041;28;20495;-65
2023/05/25 00:24:29;;;;;;;13.30;5.55;;;;;;;;;;5030757;28;20081;-65
2023/05/25 00:26:56;;;;;;;9.23;5.55;;;;;;;;;;5031092;28;20046;-65
2023/05/25 00:29:22;;;;;;;9.80;4.70;;;;;;;;;;5030571;28;20052;-66
2023/05/25 00:31:49;;;;;;;11.65;5.63;;;;;;;;;;5030721;28;20316;-65
2023/05/25 00:34:17;;;;;;;10.73;4.90;;;;;;;;;;5030575;28;20484;-65
2023/05/25 00:36:47;;;;;;;11.35;5.78;;;;;;;;;;5030419;28;20048;-65
2023/05/25 00:39:13;;;;;;;13.25;5.25;;;;;;;;;;5030716;28;20555;-65
2023/05/25 00:41:43;;;;;;;10.50;4.75;;;;;;;;;;5030674;28;20045;-65
2023/05/25 00:44:10;;;;;;;14.40;5.38;;;;;;;;;;5030542;28;20080;-65
2023/05/25 00:46:37;;;;;;;8.65;5.00;;;;;;;;;;5030730;28;20052;-65
2023/05/25 00:49:04;;;;;;;12.20;5.38;;;;;;;;;;5030229;28;20045;-65
2023/05/25 00:51:32;;;;;;;13.27;5.82;;;;;;;;;;5030145;28;20089;-65
2023/05/25 00:53:59;;;;;;;9.82;5.00;;;;;;;;;;5030512;28;20045;-65
2023/05/25 00:56:30;;;;;;;9.55;4.88;;;;;;;;;;5030394;28;20048;-65
2023/05/25 00:59:00;;;;;;;10.10;5.07;;;;;;;;;;5031135;28;20095;-65
2023/05/25 01:01:32;;;;;;;11.93;4.82;;;;;;;;;;5030264;28;20400;-65
2023/05/25 01:04:01;;;;;;;11.88;4.78;;;;;;;;;;5032988;28;20514;-66
2023/05/25 01:06:30;;;;;;;6.43;4.47;;;;;;;;;;5031374;28;20514;-65
2023/05/25 01:09:03;;;;;;;9.70;5.03;;;;;;;;;;5031874;28;20472;-64
2023/05/25 01:11:33;;;;;;;8.63;4.55;;;;;;;;;;5029636;28;20045;-65
2023/05/25 01:13:59;;;;;;;11.75;5.18;;;;;;;;;;5030300;28;20042;-65
2023/05/25 01:16:26;;;;;;;8.43;5.10;;;;;;;;;;5029548;28;20052;-65
2023/05/25 01:18:53;;;;;;;8.95;4.65;;;;;;;;;;5030392;28;20411;-65
2023/05/25 01:21:25;;;;;;;10.02;5.18;;;;;;;;;;5029500;28;20049;-65
2023/05/25 01:23:58;;;;;;;9.65;4.80;;;;;;;;;;5030267;28;20053;-65
2023/05/25 01:26:29;;;;;;;12.98;5.80;;;;;;;;;;5029573;28;20051;-65
2023/05/25 01:28:58;;;;;;;15.02;5.35;;;;;;;;;;5030082;28;20041;-65
2023/05/25 01:31:24;;;;;;;8.82;4.90;;;;;;;;;;5029258;28;20050;-65
2023/05/25 01:33:52;;;;;;;9.63;4.90;;;;;;;;;;5030231;28;20518;-65
2023/05/25 01:36:18;;;;;;;15.25;5.93;;;;;;;;;;5029791;28;20407;-65
2023/05/25 01:38:46;;;;;;;11.90;5.30;;;;;;;;;;5029932;28;20136;-65
2023/05/25 01:41:13;;;;;;;10.68;5.40;;;;;;;;;;5029466;28;20053;-65
2023/05/25 01:43:40;;;;;;;12.25;5.55;;;;;;;;;;5029663;28;20214;-66
2023/05/25 01:46:15;;;;;;;8.63;5.18;;;;;;;;;;5030106;28;20320;-66
2023/05/25 01:48:52;;;;;;;10.77;5.47;;;;;;;;;;5031512;28;20050;-65
2023/05/25 01:51:25;;;;;;;13.32;5.70;;;;;;;;;;5017285;28;20474;-65
2023/05/25 01:53:58;;;;;;;13.15;5.43;;;;;;;;;;5022862;28;20056;-66
2023/05/25 01:56:28;;;;;;;9.65;5.45;;;;;;;;;;5033114;28;20049;-65
2023/05/25 01:58:57;;;;;;;9.43;5.15;;;;;;;;;;5033517;28;20049;-65
2023/05/25 02:01:24;;;;;;;10.73;5.20;;;;;;;;;;5033347;28;20045;-66
2023/05/25 02:03:52;;;;;;;10.88;5.53;;;;;;;;;;5033402;28;20057;-65
2023/05/25 02:06:19;;;;;;;8.80;5.55;;;;;;;;;;5033820;28;20045;-66
2023/05/25 02:08:45;;;;;;;11.77;5.07;;;;;;;;;;5033166;28;20046;-65
2023/05/25 02:11:14;;;;;;;12.63;5.32;;;;;;;;;;5033601;28;20052;-65
2023/05/25 02:13:41;;;;;;;11.68;5.00;;;;;;;;;;5033597;28;20504;-66
2023/05/25 02:16:08;;;;;;;14.13;5.80;;;;;;;;;;5033372;28;20045;-66
2023/05/25 02:18:34;;;;;;;11.80;5.28;;;;;;;;;;5033744;28;20498;-66
2023/05/25 02:21:01;;;;;;;13.70;6.05;;;;;;;;;;5017529;28;20375;-65
2023/05/25 02:23:27;;;;;;;10.88;5.97;;;;;;;;;;5013518;28;20048;-65
2023/05/25 02:25:54;;;;;;;16.60;5.88;;;;;;;;;;5013237;28;20069;-66
2023/05/25 02:28:22;;;;;;;12.25;5.75;;;;;;;;;;5013908;28;20041;-66
2023/05/25 02:30:49;;;;;;;10.23;5.10;;;;;;;;;;5012729;28;20137;-66
2023/05/25 02:33:17;;;;;;;9.20;5.18;;;;;;;;;;5013267;28;20060;-66
2023/05/25 02:35:44;;;;;;;11.38;5.22;;;;;;;;;;5012882;28;20530;-66
2023/05/25 02:38:10;;;;;;;12.13;5.72;;;;;;;;;;5013639;28;20412;-66
2023/05/25 02:40:37;;;;;;;14.00;5.53;;;;;;;;;;5012887;28;20041;-65
2023/05/25 02:43:03;;;;;;;12.20;5.57;;;;;;;;;;5012893;28;20050;-65
2023/05/25 02:45:31;;;;;;;10.20;5.18;;;;;;;;;;5013396;28;20136;-65
2023/05/25 02:47:58;;;;;;;10.13;5.07;;;;;;;;;;5012857;28;20404;-66
2023/05/25 02:50:24;;;;;;;13.48;6.45;;;;;;;;;;5020293;28;20438;-65
2023/05/25 02:52:51;;;;;;;10.88;5.18;;;;;;;;;;5032637;28;20427;-65
2023/05/25 02:55:18;;;;;;;12.15;5.40;;;;;;;;;;5033017;28;20053;-65
2023/05/25 02:57:44;;;;;;;13.20;5.38;;;;;;;;;;5032357;28;20069;-65
2023/05/25 03:00:12;;;;;;;15.80;5.75;;;;;;;;;;5032194;28;20403;-65
2023/05/25 03:02:39;;;;;;;18.90;6.10;;;;;;;;;;5032498;28;20052;-65
2023/05/25 03:05:07;;;;;;;12.18;5.18;;;;;;;;;;5032451;28;20053;-66
2023/05/25 03:07:34;;;;;;;11.43;5.45;;;;;;;;;;5032479;28;20080;-64
2023/05/25 03:10:00;;;;;;;11.60;5.32;;;;;;;;;;5031777;28;20127;-65
2023/05/25 03:12:27;;;;;;;13.70;6.15;;;;;;;;;;5032517;28;20052;-64
2023/05/25 03:14:53;;;;;;;13.65;4.95;;;;;;;;;;5032041;28;20060;-64
2023/05/25 03:17:20;;;;;;;10.48;5.07;;;;;;;;;;5032335;28;20054;-64
2023/05/25 03:19:48;;;;;;;10.45;5.45;;;;;;;;;;5027178;28;20344;-65
2023/05/25 03:22:14;;;;;;;10.18;5.18;;;;;;;;;;5012645;28;20045;-65
2023/05/25 03:24:41;;;;;;;10.10;5.28;;;;;;;;;;5012397;28;20053;-64
2023/05/25 03:27:07;;;;;;;13.23;5.93;;;;;;;;;;5012166;28;20054;-64
2023/05/25 03:29:34;;;;;;;14.98;5.55;;;;;;;;;;5012507;28;20388;-64
2023/05/25 03:32:01;;;;;;;13.65;6.20;;;;;;;;;;5011965;28;20049;-65
2023/05/25 03:34:28;;;;;;;12.43;5.38;;;;;;;;;;5012464;28;20396;-65
2023/05/25 03:36:56;;;;;;;9.85;5.97;;;;;;;;;;5012118;28;20054;-65
2023/05/25 03:39:23;;;;;;;10.43;5.40;;;;;;;;;;5012476;28;20049;-65
2023/05/25 03:41:49;;;;;;;13.20;6.00;;;;;;;;;;5011428;28;20056;-64
2023/05/25 03:44:16;;;;;;;12.80;5.38;;;;;;;;;;5011865;28;20513;-65
2023/05/25 03:46:43;;;;;;;11.77;6.13;;;;;;;;;;5011739;28;20052;-64
2023/05/25 03:49:12;;;;;;;11.60;5.72;;;;;;;;;;5011621;28;20050;-65
2023/05/25 03:51:39;;;;;;;12.27;5.53;;;;;;;;;;5012270;28;20060;-65
2023/05/25 03:54:07;;;;;;;10.50;6.00;;;;;;;;;;5011683;28;20096;-65
2023/05/25 03:56:34;;;;;;;14.52;6.22;;;;;;;;;;5011732;28;20116;-65
2023/05/25 03:59:00;;;;;;;12.30;5.65;;;;;;;;;;5011745;28;20054;-65
2023/05/25 04:01:28;;;;;;;14.50;6.38;;;;;;;;;;5011662;28;20042;-65
2023/05/25 04:03:55;;;;;;;14.43;7.18;;;;;;;;;;5011683;28;20092;-65
2023/05/25 04:06:24;;;;;;;12.35;6.32;;;;;;;;;;5011705;28;20415;-65
2023/05/25 04:08:50;;;;;;;15.57;6.60;;;;;;;;;;5011189;28;20428;-65
2023/05/25 04:11:18;;;;;;;10.93;5.85;;;;;;;;;;5010589;28;20046;-65
2023/05/25 04:13:45;;;;;;;15.57;6.75;;;;;;;;;;5011318;28;20406;-65
2023/05/25 04:16:12;;;;;;;10.68;5.68;;;;;;;;;;5011696;28;20424;-65
2023/05/25 04:18:38;;;;;;;12.27;5.82;;;;;;;;;;5011193;28;20100;-65
2023/05/25 04:21:05;;;;;;;13.60;6.30;;;;;;;;;;5009969;28;20515;-65
2023/05/25 04:23:32;;;;;;;13.40;6.05;;;;;;;;;;5011773;28;20046;-65
2023/05/25 04:25:59;;;;;;;12.80;5.25;;;;;;;;;;5011683;28;20077;-65
2023/05/25 04:28:27;;;;;;;12.52;6.05;;;;;;;;;;5011642;28;20496;-65
2023/05/25 04:30:55;;;;;;;11.35;5.80;;;;;;;;;;5010725;28;20443;-65
2023/05/25 04:33:22;;;;;;;13.20;5.70;;;;;;;;;;5011456;28;20187;-65
2023/05/25 04:35:49;;;;;;;12.02;5.35;;;;;;;;;;5010693;28;20222;-65
2023/05/25 04:38:17;;;;;;;11.45;5.55;;;;;;;;;;5011115;28;20058;-65
2023/05/25 04:40:45;;;;;;;12.30;6.22;;;;;;;;;;5010459;28;20686;-65
2023/05/25 04:43:12;;;;;;;12.10;6.05;;;;;;;;;;5011340;28;20130;-65
2023/05/25 04:45:40;;;;;;;17.58;6.90;;;;;;;;;;5010532;28;20054;-65
2023/05/25 04:48:06;;;;;;;13.88;5.97;;;;;;;;;;5011280;28;20050;-66
2023/05/25 04:50:33;;;;;;;14.07;5.65;;;;;;;;;;5022119;28;20050;-66
2023/05/25 04:52:59;;;;;;;12.35;5.72;;;;;;;;;;5027023;28;20056;-65
2023/05/25 04:55:26;;;;;;;11.77;5.57;;;;;;;;;;5016513;28;20046;-65
2023/05/25 04:57:53;;;;;;;13.25;5.60;;;;;;;;;;5010424;28;20073;-65
2023/05/25 05:00:21;;;;;;;12.27;5.65;;;;;;;;;;5025842;28;20045;-65
2023/05/25 05:02:49;;;;;;;12.15;6.22;;;;;;;;;;5029996;28;20057;-65
2023/05/25 05:05:15;;;;;;;11.10;5.20;;;;;;;;;;5030332;28;20419;-65
2023/05/25 05:07:42;;;;;;;9.55;5.38;;;;;;;;;;5029726;28;20050;-65
2023/05/25 05:10:09;;;;;;;10.60;4.90;;;;;;;;;;5030493;28;20052;-65
2023/05/25 05:12:35;;;;;;;12.45;5.75;;;;;;;;;;5030062;28;20060;-65
2023/05/25 05:15:02;;;;;;;11.52;4.95;;;;;;;;;;5030487;28;20049;-65
2023/05/25 05:17:29;;;;;;;11.13;5.60;;;;;;;;;;5030091;28;20045;-65
2023/05/25 05:19:57;;;;;;;11.25;5.20;;;;;;;;;;5028773;28;20049;-65
2023/05/25 05:22:24;;;;;;;10.90;5.07;;;;;;;;;;5029099;28;20151;-65
2023/05/25 05:24:50;;;;;;;16.00;5.35;;;;;;;;;;5030218;28;20050;-65
2023/05/25 05:27:17;;;;;;;11.57;5.30;;;;;;;;;;5030483;28;20396;-65
2023/05/25 05:29:43;;;;;;;11.30;4.93;;;;;;;;;;5029257;28;20045;-65
2023/05/25 05:32:10;;;;;;;10.20;5.38;;;;;;;;;;5030815;28;20042;-65
2023/05/25 05:34:37;;;;;;;9.90;4.97;;;;;;;;;;5029433;28;20076;-65
2023/05/25 05:37:05;;;;;;;17.20;5.78;;;;;;;;;;5030067;28;20050;-65
2023/05/25 05:39:32;;;;;;;11.13;5.43;;;;;;;;;;5029171;28;20064;-65
2023/05/25 05:41:58;;;;;;;11.38;4.82;;;;;;;;;;5030332;28;20045;-66
2023/05/25 05:44:25;;;;;;;15.07;5.53;;;;;;;;;;5029461;28;20041;-65
2023/05/25 05:46:58;;;;;;;12.38;5.15;;;;;;;;;;5029916;28;20056;-65
2023/05/25 05:49:25;;;;;;;11.82;5.10;;;;;;;;;;5028689;28;20083;-65
2023/05/25 05:51:51;;;;;;;9.65;4.75;;;;;;;;;;5029408;28;20052;-64
2023/05/25 05:54:19;;;;;;;12.38;5.50;;;;;;;;;;5009320;28;20045;-65
2023/05/25 05:56:46;;;;;;;8.48;4.25;;;;;;;;;;5009814;28;20058;-65
2023/05/25 05:59:12;;;;;;;11.13;5.05;;;;;;;;;;5010200;28;20042;-65
2023/05/25 06:01:41;;;;;;;12.30;5.43;;;;;;;;;;5009058;28;20046;-65
2023/05/25 06:04:08;;;;;;;10.00;4.50;;;;;;;;;;5010269;28;20060;-66
2023/05/25 06:06:36;;;;;;;12.73;5.25;;;;;;;;;;5009627;28;20683;-65
2023/05/25 06:09:05;;;;;;;11.15;4.68;;;;;;;;;;5010280;28;20088;-65
2023/05/25 06:11:34;;;;;;;8.80;4.28;;;;;;;;;;5009320;28;20046;-65
2023/05/25 06:14:01;;;;;;;12.15;5.13;;;;;;;;;;5009948;28;20042;-65
2023/05/25 06:16:27;;;;;;;10.70;4.25;;;;;;;;;;5012450;28;20506;-65
2023/05/25 06:18:54;;;;;;;10.30;4.90;;;;;;;;;;5029689;28;20045;-65
2023/05/25 06:21:20;;;;;;;9.43;4.75;;;;;;;;;;5025361;28;20037;-65
2023/05/25 06:23:47;;;;;;;9.70;4.57;;;;;;;;;;5010368;28;20057;-65
2023/05/25 06:26:14;;;;;;;10.00;4.85;;;;;;;;;;5009541;28;20054;-65
2023/05/25 06:28:42;;;;;;;10.95;4.97;;;;;;;;;;5009758;28;20050;-65
2023/05/25 06:31:08;;;;;;;12.43;5.00;;;;;;;;;;5009667;28;20389;-65
2023/05/25 06:33:35;;;;;;;10.18;4.43;;;;;;;;;;5009489;28;20061;-65
2023/05/25 06:36:01;;;;;;;10.52;4.65;;;;;;;;;;5028535;28;20399;-65
2023/05/25 06:38:28;;;;;;;10.40;4.18;;;;;;;;;;5032921;28;20049;-65
2023/05/25 06:40:55;;;;;;;10.05;4.60;;;;;;;;;;5032956;28;20480;-65
2023/05/25 06:43:24;;;;;;;10.82;4.80;;;;;;;;;;5032356;28;20056;-65
2023/05/25 06:45:52;;;;;;;9.77;4.40;;;;;;;;;;5033310;28;20472;-65
2023/05/25 06:48:19;;;;;;;10.20;4.90;;;;;;;;;;5032497;28;20045;-65
2023/05/25 06:50:45;;;;;;;9.70;4.57;;;;;;;;;;5032680;28;20056;-65
2023/05/25 06:53:12;;;;;;;11.25;5.47;;;;;;;;;;5031630;28;20096;-65
2023/05/25 06:55:39;;;;;;;12.52;5.50;;;;;;;;;;5022354;28;20492;-65
2023/05/25 06:58:05;;;;;;;9.43;4.53;;;;;;;;;;5030983;28;20054;-65
2023/05/25 07:00:32;;;;;;;9.18;4.78;;;;;;;;;;5032032;28;20060;-65
2023/05/25 07:03:01;;;;;;;18.38;5.63;;;;;;;;;;5032537;28;20055;-65
2023/05/25 07:05:27;;;;;;;8.05;4.68;;;;;;;;;;5031956;28;20140;-65
2023/05/25 07:07:54;;;;;;;9.82;5.00;;;;;;;;;;5032434;28;20487;-65
2023/05/25 07:10:20;;;;;;;12.23;4.60;;;;;;;;;;5016717;28;20045;-65
2023/05/25 07:12:47;;;;;;;10.45;4.47;;;;;;;;;;5025694;28;20045;-65
2023/05/25 07:15:15;;;;;;;8.50;4.95;;;;;;;;;;5030242;28;20056;-65
2023/05/25 07:17:41;;;;;;;7.78;4.38;;;;;;;;;;5028096;28;20483;-65
2023/05/25 07:20:11;;;;;;;9.23;4.40;;;;;;;;;;5028776;28;20041;-65
2023/05/25 07:22:38;;;;;;;9.52;4.20;;;;;;;;;;5031268;28;20075;-65
2023/05/25 07:25:06;;;;;;;10.55;4.65;;;;;;;;;;5031680;28;20057;-65
2023/05/25 07:27:32;;;;;;;11.68;4.03;;;;;;;;;;5022317;28;20042;-65
2023/05/25 07:29:59;;;;;;;8.10;4.50;;;;;;;;;;5016985;28;20058;-64
2023/05/25 07:32:25;;;;;;;9.60;4.78;;;;;;;;;;5018450;28;20045;-64
2023/05/25 07:34:52;;;;;;;8.32;4.20;;;;;;;;;;5013484;28;20053;-64
2023/05/25 07:37:20;;;;;;;8.30;4.72;;;;;;;;;;5012212;28;20508;-64
2023/05/25 07:39:46;;;;;;;10.52;5.22;;;;;;;;;;5017878;28;20050;-64
2023/05/25 07:42:13;;;;;;;9.45;4.32;;;;;;;;;;5012080;28;20056;-65
2023/05/25 07:44:39;;;;;;;9.90;4.22;;;;;;;;;;5028744;28;20581;-65
2023/05/25 07:47:06;;;;;;;8.38;4.18;;;;;;;;;;5027047;28;20474;-65
2023/05/25 07:49:33;;;;;;;9.32;4.20;;;;;;;;;;5029320;28;20053;-65
2023/05/25 07:51:59;;;;;;;7.75;3.78;;;;;;;;;;5030081;28;20041;-65
2023/05/25 07:54:27;;;;;;;9.40;4.00;;;;;;;;;;5031858;28;20073;-65
2023/05/25 07:56:53;;;;;;;10.05;3.70;;;;;;;;;;5031025;28;20050;-65
2023/05/25 07:59:20;;;;;;;8.30;4.05;;;;;;;;;;5031499;28;20053;-66
2023/05/25 08:01:47;;;;;;;8.82;3.85;;;;;;;;;;5030477;28;20053;-65
2023/05/25 08:04:13;;;;;;;9.27;4.72;;;;;;;;;;5030092;28;20522;-65
2023/05/25 08:06:41;;;;;;;8.55;4.03;;;;;;;;;;5028706;28;20506;-65
2023/05/25 08:09:07;;;;;;;6.88;3.80;;;;;;;;;;5030443;28;20135;-65
2023/05/25 08:11:35;;;;;;;8.35;4.32;;;;;;;;;;5031024;28;20065;-65
2023/05/25 08:14:04;;;;;;;6.78;3.47;;;;;;;;;;5030368;28;20488;-66
2023/05/25 08:16:30;;;;;;;9.20;3.90;;;;;;;;;;5030732;28;20052;-65
2023/05/25 08:18:58;;;;;;;12.52;3.95;;;;;;;;;;5018748;28;20053;-64
2023/05/25 08:21:25;;;;;;;6.85;3.35;;;;;;;;;;5028758;28;20423;-65
2023/05/25 08:23:52;;;;;;;7.95;3.80;;;;;;;;;;5030328;28;20049;-65
2023/05/25 08:26:19;;;;;;;6.80;3.85;;;;;;;;;;5016028;28;20128;-65
2023/05/25 08:28:47;;;;;;;8.35;3.30;;;;;;;;;;5010047;28;20231;-65
2023/05/25 08:31:13;;;;;;;9.95;3.45;;;;;;;;;;5008960;28;20389;-65
2023/05/25 08:33:40;;;;;;;8.80;3.67;;;;;;;;;;5010377;28;20053;-65
2023/05/25 08:36:08;;;;;;;7.10;3.65;;;;;;;;;;5026308;28;20076;-65
2023/05/25 08:38:34;;;;;;;10.13;3.72;;;;;;;;;;5029627;28;20050;-65
2023/05/25 08:41:04;;;;;;;11.43;3.47;;;;;;;;;;5030366;28;20411;-65
2023/05/25 08:43:31;;;;;;;9.07;3.58;;;;;;;;;;5030073;28;20051;-65
2023/05/25 08:46:03;;;;;;;11.15;3.53;;;;;;;;;;5030699;28;20049;-65
2023/05/25 08:48:31;;;;;;;8.45;3.58;;;;;;;;;;5030411;28;20056;-65
2023/05/25 08:51:00;;;;;;;7.70;3.38;;;;;;;;;;5030721;28;20048;-65
2023/05/25 08:53:30;;;;;;;5.75;3.45;;;;;;;;;;5030413;28;20055;-65
2023/05/25 08:55:58;;;;;;;7.53;3.47;;;;;;;;;;5016774;28;20241;-65
2023/05/25 08:58:30;;;;;;;7.45;3.70;;;;;;;;;;5010662;28;20517;-64
2023/05/25 09:01:02;;;;;;;10.27;3.38;;;;;;;;;;5009786;28;20060;-65
2023/05/25 09:03:29;;;;;;;8.05;3.70;;;;;;;;;;5010997;28;20491;-65
2023/05/25 09:05:57;;;;;;;5.80;3.40;;;;;;;;;;5021922;28;20053;-65
2023/05/25 09:08:24;;;;;;;10.05;3.63;;;;;;;;;;5029974;28;20431;-65
2023/05/25 09:10:52;;;;;;;6.03;2.80;;;;;;;;;;5029451;28;20059;-65
2023/05/25 09:13:20;;;;;;;7.20;3.15;;;;;;;;;;5029472;28;20045;-65
2023/05/25 09:15:46;;;;;;;9.75;3.35;;;;;;;;;;5030193;28;20113;-65
2023/05/25 09:18:14;;;;;;;8.93;3.97;;;;;;;;;;5029904;28;20415;-65
2023/05/25 09:20:41;;;;;;;8.48;3.38;;;;;;;;;;5029967;28;20487;-65
2023/05/25 09:23:08;;;;;;;5.68;3.20;;;;;;;;;;5029756;28;20053;-65
2023/05/25 09:25:35;;;;;;;7.03;2.97;;;;;;;;;;5020345;28;20053;-65
2023/05/25 09:28:02;;;;;;;9.30;2.88;;;;;;;;;;5022367;28;20045;-65
2023/05/25 09:30:31;;;;;;;6.35;3.30;;;;;;;;;;5020291;28;20435;-64
2023/05/25 09:33:09;;;;;;;5.78;2.85;;;;;;;;;;5024390;28;20076;-65
2023/05/25 09:35:37;;;;;;;7.30;2.95;;;;;;;;;;5014533;28;20412;-65
2023/05/25 09:38:04;;;;;;;6.00;3.05;;;;;;;;;;5021888;28;20050;-65
2023/05/25 09:40:33;;;;;;;8.68;3.45;;;;;;;;;;5027336;28;20056;-65
2023/05/25 09:43:01;;;;;;;7.65;3.05;;;;;;;;;;5027967;28;20050;-65
2023/05/25 09:45:28;;;;;;;8.48;3.05;;;;;;;;;;5025167;28;20045;-65
2023/05/25 09:47:55;;;;;;;8.55;2.60;;;;;;;;;;5027234;28;20306;-65
2023/05/25 09:50:22;;;;;;;7.00;3.00;;;;;;;;;;5022771;28;20046;-65
2023/05/25 09:52:52;;;;;;;6.20;3.33;;;;;;;;;;5020794;28;20088;-65
2023/05/25 09:55:18;;;;;;;7.65;3.15;;;;;;;;;;5029350;28;20050;-65
2023/05/25 09:57:45;;;;;;;5.45;2.63;;;;;;;;;;5020716;28;20053;-65
2023/05/25 10:00:17;;;;;;;6.55;2.10;;;;;;;;;;5028973;28;20041;-65
2023/05/25 10:02:43;;;;;;;9.55;3.40;;;;;;;;;;5020929;28;20434;-65
2023/05/25 10:05:10;;;;;;;5.53;2.80;;;;;;;;;;5027956;28;20050;-65
2023/05/25 10:07:39;;;;;;;5.25;2.63;;;;;;;;;;5024556;28;20424;-65
2023/05/25 10:10:09;;;;;;;6.00;2.70;;;;;;;;;;5022675;28;20420;-65
2023/05/25 10:12:37;;;;;;;8.27;2.95;;;;;;;;;;5033054;28;20045;-65
2023/05/25 10:15:05;;;;;;;5.50;2.60;;;;;;;;;;5030951;28;20084;-65
2023/05/25 10:17:35;;;;;;;5.28;3.05;;;;;;;;;;5018945;28;20408;-65
2023/05/25 10:20:05;;;;;;;6.32;2.55;;;;;;;;;;5026080;28;20037;-65
2023/05/25 10:22:36;;;;;;;8.82;2.92;;;;;;;;;;5018541;28;20041;-65
2023/05/25 10:25:13;;;;;;;4.97;2.70;;;;;;;;;;5027841;28;20057;-65
2023/05/25 10:27:44;;;;;;;5.45;2.75;;;;;;;;;;5022389;28;20045;-65
2023/05/25 10:30:14;;;;;;;6.75;2.67;;;;;;;;;;5022828;28;20049;-65
2023/05/25 10:32:41;;;;;;;9.48;2.88;;;;;;;;;;5019474;28;20447;-65
2023/05/25 10:35:09;;;;;;;5.68;3.10;;;;;;;;;;5021205;28;20053;-64
2023/05/25 10:37:38;;;;;;;5.13;2.92;;;;;;;;;;5029151;28;20057;-65
2023/05/25 10:40:07;;;;;;;7.65;3.50;;;;;;;;;;5025489;28;20136;-65
2023/05/25 10:42:36;;;;;;;6.72;2.72;;;;;;;;;;5017386;28;20049;-65
2023/05/25 10:45:03;;;;;;;6.78;3.20;;;;;;;;;;5020291;28;20053;-65
2023/05/25 10:47:30;;;;;;;7.15;3.08;;;;;;;;;;5028550;28;20041;-65
2023/05/25 10:50:00;;;;;;;3.65;2.60;;;;;;;;;;5024795;28;20045;-65
2023/05/25 10:52:28;;;;;;;4.63;2.53;;;;;;;;;;5025824;28;20129;-65
2023/05/25 10:54:55;;;;;;;4.65;2.60;;;;;;;;;;5030491;28;20499;-65
2023/05/25 10:57:24;;;;;;;5.85;2.63;;;;;;;;;;5031141;28;20051;-65
2023/05/25 10:59:54;;;;;;;5.45;3.10;;;;;;;;;;5030730;28;20051;-65
2023/05/25 11:02:23;;;;;;;6.28;2.53;;;;;;;;;;5029428;28;20488;-65
2023/05/25 11:04:50;;;;;;;4.57;2.30;;;;;;;;;;5025729;28;20042;-65
2023/05/25 11:07:18;;;;;;;5.57;3.05;;;;;;;;;;5021070;28;20061;-65
2023/05/25 11:09:57;;;;;;;4.07;2.85;;;;;;;;;;5030314;28;20079;-65
2023/05/25 11:12:23;;;;;;;7.25;2.40;;;;;;;;;;5031182;28;20084;-65
2023/05/25 11:15:11;;;;;;;4.60;2.30;;;;;;;;;;5029748;28;21169;-64
2023/05/25 11:17:46;;;;;;;5.57;2.92;;;;;;;;;;5020456;28;20060;-65
2023/05/25 11:20:22;;;;;;;7.15;2.30;;;;;;;;;;5022595;28;20443;-65
2023/05/25 11:22:50;;;;;;;4.65;2.38;;;;;;;;;;5024747;28;20454;-65
2023/05/25 11:25:36;;;;;;;6.07;2.50;;;;;;;;;;5028549;28;20037;-65
2023/05/25 11:28:04;;;;;;;5.30;2.53;;;;;;;;;;5030746;28;20053;-65
2023/05/25 11:30:32;;;;;;;8.93;2.35;;;;;;;;;;5024509;28;20053;-65
2023/05/25 11:33:01;;;;;;;3.58;2.65;;;;;;;;;;5022233;28;20056;-65
2023/05/25 11:35:28;;;;;;;5.25;2.20;;;;;;;;;;5028490;28;20084;-65
2023/05/25 11:37:55;;;;;;;4.82;2.35;;;;;;;;;;5026310;28;20054;-65
2023/05/25 11:40:22;;;;;;;3.95;2.40;;;;;;;;;;5017349;28;20115;-65
2023/05/25 11:42:50;;;;;;;4.38;2.28;;;;;;;;;;5023088;28;20046;-65
2023/05/25 11:45:17;;;;;;;4.55;2.20;;;;;;;;;;5031438;28;20476;-65
2023/05/25 11:47:45;;;;;;;6.40;2.38;;;;;;;;;;5025862;28;20125;-65
2023/05/25 11:50:15;;;;;;;4.93;2.10;;;;;;;;;;5021980;28;20111;-65
2023/05/25 11:52:42;;;;;;;4.05;1.95;;;;;;;;;;5024137;28;20104;-65
2023/05/25 11:55:11;;;;;;;5.38;2.20;;;;;;;;;;5029009;28;20077;-65
2023/05/25 11:57:39;;;;;;;4.53;2.40;;;;;;;;;;5030904;28;20476;-65
2023/05/25 12:00:10;;;;;;;4.80;2.30;;;;;;;;;;5025656;28;20045;-65
2023/05/25 12:02:38;;;;;;;4.95;2.30;;;;;;;;;;5022474;28;20267;-65
2023/05/25 12:05:06;;;;;;;6.97;2.70;;;;;;;;;;5031232;28;20520;-65
2023/05/25 12:07:35;;;;;;;4.82;2.80;;;;;;;;;;5030674;28;20488;-65
2023/05/25 12:10:06;;;;;;;6.80;2.17;;;;;;;;;;5023976;28;20045;-66
2023/05/25 12:12:39;;;;;;;4.30;2.10;;;;;;;;;;5022586;28;20144;-65
2023/05/25 12:15:07;;;;;;;7.10;2.75;;;;;;;;;;5028092;28;20133;-65
2023/05/25 12:17:34;;;;;;;4.25;2.50;;;;;;;;;;5022453;28;20049;-65
2023/05/25 12:20:01;;;;;;;6.97;2.30;;;;;;;;;;5026523;28;20049;-65
2023/05/25 12:22:29;;;;;;;10.98;2.45;;;;;;;;;;5028579;28;20178;-65
2023/05/25 12:24:55;;;;;;;4.10;2.90;;;;;;;;;;5030770;28;20403;-65
2023/05/25 12:27:22;;;;;;;5.72;2.55;;;;;;;;;;5030051;28;20423;-65
2023/05/25 12:29:51;;;;;;;8.27;2.58;;;;;;;;;;5030511;28;20103;-65
2023/05/25 12:32:18;;;;;;;7.00;2.33;;;;;;;;;;5028549;28;20053;-65
2023/05/25 12:34:45;;;;;;;3.60;2.25;;;;;;;;;;5029149;28;20052;-66
2023/05/25 12:37:19;;;;;;;5.25;2.40;;;;;;;;;;5029153;28;20045;-65
2023/05/25 12:39:49;;;;;;;4.82;2.80;;;;;;;;;;5028773;28;20100;-65
2023/05/25 12:42:16;;;;;;;5.72;2.47;;;;;;;;;;5027738;28;20053;-66
2023/05/25 12:44:45;;;;;;;4.57;3.08;;;;;;;;;;5028021;28;20057;-65
2023/05/25 12:47:13;;;;;;;6.07;2.70;;;;;;;;;;5022217;28;20045;-65
2023/05/25 12:49:41;;;;;;;6.32;2.47;;;;;;;;;;5023901;28;20044;-65
2023/05/25 12:52:08;;;;;;;7.63;3.40;;;;;;;;;;5025747;28;20056;-66
2023/05/25 12:54:42;;;;;;;5.95;2.38;;;;;;;;;;5011405;28;20400;-66
2023/05/25 12:57:12;;;;;;;6.78;2.60;;;;;;;;;;5021424;28;20501;-66
2023/05/25 12:59:39;;;;;;;4.93;2.33;;;;;;;;;;5017204;28;20053;-66
2023/05/25 13:02:07;;;;;;;5.97;2.40;;;;;;;;;;5020536;28;20042;-66
2023/05/25 13:04:34;;;;;;;3.88;2.22;;;;;;;;;;5021758;28;20132;-66
2023/05/25 13:07:01;;;;;;;6.18;2.38;;;;;;;;;;5022899;28;20498;-66
2023/05/25 13:09:28;;;;;;;3.55;2.40;;;;;;;;;;5022065;28;20555;-66
2023/05/25 13:11:55;;;;;;;3.97;2.20;;;;;;;;;;5014032;28;20051;-66
2023/05/25 13:14:24;;;;;;;5.20;2.50;;;;;;;;;;5020946;28;20045;-66
2023/05/25 13:16:51;;;;;;;6.97;2.10;;;;;;;;;;5024734;28;20080;-69
2023/05/25 13:19:18;;;;;;;4.50;2.00;;;;;;;;;;5019955;28;20365;-69
2023/05/25 13:21:46;;;;;;;4.47;2.08;;;;;;;;;;5016328;28;20061;-68
2023/05/25 13:24:13;;;;;;;3.65;2.10;;;;;;;;;;5009099;28;20083;-68
2023/05/25 13:26:40;;;;;;;4.70;2.20;;;;;;;;;;5005952;28;20137;-69
2023/05/25 13:29:06;;;;;;;4.32;2.15;;;;;;;;;;5013550;28;20490;-68
2023/05/25 13:31:34;;;;;;;3.45;1.83;;;;;;;;;;5007101;28;20046;-68
2023/05/25 13:34:02;;;;;;;4.95;2.00;;;;;;;;;;5012225;28;20112;-68
2023/05/25 13:36:31;;;;;;;4.28;1.83;;;;;;;;;;5020651;28;20514;-68
2023/05/25 13:38:58;;;;;;;4.32;2.10;;;;;;;;;;5021285;28;20168;-68
2023/05/25 13:41:24;;;;;;;4.10;2.10;;;;;;;;;;5018550;28;20097;-68
2023/05/25 13:43:51;;;;;;;3.83;1.90;;;;;;;;;;5011894;28;20511;-69
2023/05/25 13:46:18;;;;;;;4.85;2.40;;;;;;;;;;5012988;28;20053;-68
2023/05/25 13:48:47;;;;;;;3.80;1.90;;;;;;;;;;5020660;28;20433;-68
2023/05/25 13:51:15;;;;;;;3.28;1.83;;;;;;;;;;5011909;28;20054;-68
2023/05/25 13:53:41;;;;;;;3.10;1.73;;;;;;;;;;5012871;28;20457;-69
2023/05/25 13:56:08;;;;;;;4.75;1.90;;;;;;;;;;5025212;28;20060;-68
2023/05/25 13:58:35;;;;;;;3.53;2.08;;;;;;;;;;5020338;28;20139;-68
2023/05/25 14:01:02;;;;;;;3.28;2.00;;;;;;;;;;5022893;28;20088;-68
2023/05/25 14:03:28;;;;;;;2.85;1.88;;;;;;;;;;5022258;28;21372;-68
2023/05/25 14:05:56;;;;;;;6.15;1.98;;;;;;;;;;5025192;28;20097;-69
2023/05/25 14:08:23;;;;;;;4.15;2.00;;;;;;;;;;5026861;28;20060;-69
2023/05/25 14:10:49;;;;;;;2.95;1.65;;;;;;;;;;5018692;28;20045;-68
2023/05/25 14:13:16;;;;;;;4.07;2.00;;;;;;;;;;5018656;28;20532;-68
2023/05/25 14:15:43;;;;;;;6.22;1.90;;;;;;;;;;5022116;28;20038;-69
2023/05/25 14:18:10;;;;;;;3.58;1.90;;;;;;;;;;5019194;28;20073;-69
2023/05/25 14:20:39;;;;;;;4.50;2.08;;;;;;;;;;5024610;28;20046;-69
2023/05/25 14:23:06;;;;;;;3.28;1.90;;;;;;;;;;5022791;28;20056;-66
2023/05/25 14:25:33;;;;;;;2.80;2.10;;;;;;;;;;5017423;28;20068;-66
2023/05/25 14:27:59;;;;;;;3.38;2.00;;;;;;;;;;5028992;28;20418;-66
2023/05/25 14:30:26;;;;;;;4.28;1.80;;;;;;;;;;5022956;28;20282;-66
2023/05/25 14:32:53;;;;;;;3.58;1.67;;;;;;;;;;5023177;28;20479;-66
2023/05/25 14:35:19;;;;;;;3.33;2.35;;;;;;;;;;5017380;28;20042;-66
2023/05/25 14:37:49;;;;;;;1.92;1.70;;;;;;;;;;5026737;28;20049;-66
2023/05/25 14:40:17;;;;;;;3.58;2.00;;;;;;;;;;5029209;28;20136;-66
2023/05/25 14:42:43;;;;;;;3.28;1.85;;;;;;;;;;5027852;28;20057;-66